Date,TemperatureHighF,TemperatureAvgF,TemperatureLowF,DewpointHighF,DewpointAvgF,DewpointLowF,HumidityHigh,HumidityAvg,HumidityLow,PressureMaxIn,PressureMinIn,WindSpeedMaxMPH,WindSpeedAvgMPH,GustSpeedMaxMPH,PrecipitationSumIn
2013-3-1,33.5,31.8,29.2,28.0,26.1,24.0,87,79,72,30.31,30.21,16,8,0,0.00
2013-3-2,35.8,30.8,27.8,28.0,21.1,17.0,92,68,52,30.39,30.30,21,10,0,0.00
2013-3-3,52.8,37.3,23.4,29.0,24.4,20.0,92,64,34,30.33,30.03,14,3,0,0.00
2013-3-4,55.0,46.5,37.6,47.0,38.7,27.0,90,75,65,30.02,29.76,9,3,0,0.00
2013-3-5,45.3,40.3,33.3,43.0,29.7,21.0,93,68,43,30.32,29.82,32,14,0,0.03
2013-3-6,47.3,37.5,30.0,31.0,23.8,20.0,79,59,40,30.48,30.32,20,6,0,0.00
2013-3-7,58.7,44.1,33.3,34.0,30.3,25.0,82,61,34,30.44,30.30,8,2,0,0.00
2013-3-8,57.4,46.4,34.7,37.0,34.0,31.0,88,64,43,30.43,30.23,12,2,0,0.00
2013-3-9,73.6,59.2,47.5,55.0,42.0,35.0,84,55,25,30.22,29.82,15,5,0,0.01
2013-3-10,61.4,51.4,38.7,56.0,48.2,33.0,97,89,68,29.93,29.70,20,6,0,1.49
2013-3-11,44.3,37.0,31.5,34.0,28.6,25.0,91,73,51,30.13,29.92,16,6,0,0.00
2013-3-12,57.1,43.6,29.9,32.0,28.4,25.0,91,59,31,30.37,30.12,20,6,0,0.00
2013-3-13,51.0,40.7,31.8,31.0,23.9,19.0,74,53,29,30.53,30.36,20,7,0,0.00
2013-3-14,73.3,51.9,31.2,40.0,33.5,29.0,92,56,27,30.48,30.17,14,2,0,0.00
2013-3-15,82.9,66.5,46.5,49.0,43.7,39.0,78,47,24,30.17,29.83,22,3,0,0.00
2013-3-16,75.6,64.5,51.0,51.0,45.7,39.0,66,51,40,29.95,29.80,13,4,0,0.00
2013-3-17,50.8,42.3,38.4,40.0,38.7,36.0,96,87,65,30.04,29.78,13,3,0,0.15
2013-3-18,52.0,45.7,41.4,45.0,40.2,35.0,96,82,56,30.12,29.77,22,4,0,0.00
2013-3-19,53.2,43.6,33.4,36.0,27.1,17.0,94,58,26,30.32,30.11,14,3,0,0.00
2013-3-20,47.7,40.7,33.3,34.0,22.5,12.0,88,52,25,30.40,30.21,23,8,0,0.00
2013-3-21,44.5,34.5,29.9,31.0,21.2,13.0,94,62,30,30.22,30.01,9,2,0,0.48
2013-3-22,37.0,34.1,31.6,36.0,33.0,30.0,96,95,94,30.07,29.99,5,1,0,0.19
2013-3-23,44.2,39.8,35.5,40.0,36.5,33.0,95,88,79,30.07,29.81,7,1,0,0.00
2013-3-24,42.6,37.9,31.8,41.0,33.4,24.0,96,84,72,30.12,29.66,33,12,0,0.01
2013-3-25,35.9,30.9,26.7,26.0,22.3,19.0,76,71,61,30.38,30.10,28,12,0,0.00
2013-3-26,47.2,36.7,28.3,29.0,24.8,23.0,84,64,41,30.49,30.38,14,5,0,0.00
2013-3-27,58.8,43.0,27.1,34.0,28.5,25.0,95,62,31,30.47,30.30,11,2,0,0.00
2013-3-28,70.0,55.9,45.2,47.0,38.8,34.0,68,54,35,30.36,30.20,9,2,0,0.00
2013-3-29,68.4,57.6,48.7,52.0,48.8,44.0,93,73,55,30.27,30.18,13,1,0,0.00
2013-3-30,63.6,54.6,50.8,55.0,50.4,47.0,94,86,73,30.23,29.95,12,2,0,0.21
2013-3-31,69.0,57.5,47.5,53.0,47.6,40.0,97,73,41,30.03,29.91,13,2,0,0.23